Time;durP1;ratioP1;P1;durP2;ratioP2;P2;SDS_P1;SDS_P2;PMS_P1;PMS_P2;Temp;Humidity;BMP_temperature;BMP_pressure;BME280_temperature;BME280_humidity;BME280_pressure;Samples;Min_cycle;Max_cycle;Signal;HPM_P1;HPM_P2
2022/05/20 00:00:43;;;;;;;14.20;3.97;;;10.10;95.90;;;;;;5013264;28;20193;-59
2022/05/20 00:03:10;;;;;;;10.73;3.87;;;10.10;95.80;;;;;;5013224;28;20210;-58
2022/05/20 00:05:36;;;;;;;17.57;4.93;;;10.10;95.90;;;;;;5013125;28;20208;-58
2022/05/20 00:08:03;;;;;;;9.60;3.87;;;10.10;96.30;;;;;;5013382;28;20225;-58
2022/05/20 00:10:29;;;;;;;12.10;3.70;;;10.00;96.80;;;;;;5001158;28;20188;-57
2022/05/20 00:12:55;;;;;;;14.43;4.27;;;10.00;97.00;;;;;;4993789;28;20255;-58
2022/05/20 00:15:24;;;;;;;7.97;3.97;;;9.90;97.40;;;;;;4993456;28;20227;-58
2022/05/20 00:17:50;;;;;;;15.03;4.53;;;10.00;97.70;;;;;;4993468;28;20205;-58
2022/05/20 00:20:19;;;;;;;12.50;4.30;;;9.90;97.90;;;;;;4993248;28;20216;-57
2022/05/20 00:22:45;;;;;;;10.47;4.73;;;10.00;98.20;;;;;;4992824;28;20257;-57
2022/05/20 00:27:57;;;;;;;10.87;3.23;;;9.90;98.30;;;;;;4993456;28;20191;-58
2022/05/20 00:30:23;;;;;;;11.33;3.40;;;9.80;98.60;;;;;;4993163;28;20191;-58
2022/05/20 00:32:49;;;;;;;6.67;2.80;;;9.80;98.30;;;;;;4992990;28;20239;-58
2022/05/20 00:35:15;;;;;;;7.40;2.97;;;9.80;98.20;;;;;;4993343;28;20225;-58
2022/05/20 00:37:41;;;;;;;9.77;3.37;;;9.90;98.60;;;;;;4992678;28;20659;-58
2022/05/20 00:40:09;;;;;;;10.57;3.50;;;9.80;99.50;;;;;;4993262;28;20180;-58
2022/05/20 00:42:36;;;;;;;8.77;3.40;;;9.80;99.30;;;;;;4992866;28;20182;-58
2022/05/20 00:45:04;;;;;;;7.60;3.47;;;9.90;98.00;;;;;;4993156;28;20191;-58
2022/05/20 00:47:30;;;;;;;10.90;4.50;;;9.90;98.80;;;;;;4993030;28;20202;-58
2022/05/20 00:49:58;;;;;;;13.97;5.03;;;9.80;99.30;;;;;;4992966;28;20666;-58
2022/05/20 00:52:28;;;;;;;12.30;4.63;;;9.80;99.30;;;;;;4992674;28;20196;-58
2022/05/20 00:54:59;;;;;;;9.73;4.07;;;9.70;99.20;;;;;;4992679;28;20246;-58
2022/05/20 00:57:29;;;;;;;11.27;4.63;;;9.70;99.60;;;;;;4992754;28;20195;-57
2022/05/20 01:00:12;;;;;;;9.27;4.43;;;9.60;99.70;;;;;;4992870;28;20192;-57
2022/05/20 01:02:38;;;;;;;16.67;4.03;;;9.50;99.90;;;;;;4992241;28;20178;-57
2022/05/20 01:05:27;;;;;;;11.93;4.13;;;9.50;99.90;;;;;;4992926;28;20190;-57
2022/05/20 01:07:54;;;;;;;13.77;4.50;;;9.40;99.90;;;;;;4992180;28;20188;-57
2022/05/20 01:10:20;;;;;;;9.90;3.87;;;9.40;99.90;;;;;;5003111;28;20213;-57
2022/05/20 01:12:48;;;;;;;13.00;3.73;;;9.40;99.90;;;;;;5012002;28;20675;-57
2022/05/20 01:15:14;;;;;;;11.93;3.80;;;9.50;99.90;;;;;;5011685;28;20245;-57
2022/05/20 01:17:40;;;;;;;16.90;4.70;;;9.50;99.90;;;;;;4994538;28;20193;-57
2022/05/20 01:20:11;;;;;;;11.87;3.93;;;9.50;99.90;;;;;;5012036;28;20188;-57
2022/05/20 01:22:47;;;;;;;16.13;5.40;;;9.60;99.90;;;;;;5011574;28;20193;-57
2022/05/20 01:25:13;;;;;;;10.73;3.73;;;9.70;99.90;;;;;;5011925;28;20181;-57
2022/05/20 01:27:46;;;;;;;11.00;3.90;;;9.70;99.90;;;;;;5011903;28;20201;-57
2022/05/20 01:30:14;;;;;;;7.97;3.50;;;9.60;99.90;;;;;;4994485;28;20185;-57
2022/05/20 01:32:41;;;;;;;13.20;4.90;;;9.60;99.90;;;;;;5011572;28;20196;-57
2022/05/20 01:35:12;;;;;;;8.33;4.10;;;9.60;99.90;;;;;;5011999;28;20224;-57
2022/05/20 01:37:38;;;;;;;8.87;3.67;;;9.60;99.90;;;;;;5011458;28;20318;-57
2022/05/20 01:40:06;;;;;;;10.77;4.00;;;9.60;99.90;;;;;;5011919;28;20658;-57
2022/05/20 01:43:03;;;;;;;14.80;5.13;;;9.60;99.90;;;;;;5014683;28;20195;-57
2022/05/20 01:45:35;;;;;;;28.97;5.60;;;9.60;99.90;;;;;;5010940;28;20205;-64
2022/05/20 01:48:37;;;;;;;12.60;4.40;;;9.70;99.90;;;;;;5018410;28;20246;-57
2022/05/20 01:51:08;;;;;;;10.77;3.67;;;9.70;99.90;;;;;;5018277;28;20225;-57
2022/05/20 01:53:49;;;;;;;6.83;2.63;;;9.70;99.90;;;;;;5017971;28;20237;-57
2022/05/20 01:56:25;;;;;;;9.27;3.30;;;9.80;99.30;;;;;;5018225;28;20238;-57
2022/05/20 01:59:01;;;;;;;7.23;3.07;;;9.80;99.70;;;;;;5017953;28;20179;-59
2022/05/20 02:01:49;;;;;;;11.43;3.80;;;9.80;99.40;;;;;;5018494;28;20231;-57
2022/05/20 02:04:21;;;;;;;11.30;4.60;;;9.80;99.90;;;;;;5018192;28;20261;-57
2022/05/20 02:06:55;;;;;;;8.00;3.57;;;9.80;99.90;;;;;;5017939;28;20169;-57
2022/05/20 02:09:27;;;;;;;8.03;3.40;;;9.80;99.90;;;;;;5015260;28;20185;-57
2022/05/20 02:11:56;;;;;;;8.27;3.57;;;9.90;99.90;;;;;;4998441;28;20185;-58
2022/05/20 02:14:28;;;;;;;12.87;3.80;;;9.80;99.90;;;;;;4998650;28;20199;-57
2022/05/20 02:17:22;;;;;;;14.13;3.37;;;9.80;99.90;;;;;;4997915;28;20265;-58
2022/05/20 02:20:00;;;;;;;12.57;4.17;;;9.80;99.90;;;;;;4998108;28;20278;-58
2022/05/20 02:22:34;;;;;;;11.73;3.57;;;9.80;99.90;;;;;;4998430;28;20180;-58
2022/05/20 02:25:05;;;;;;;14.00;3.37;;;9.80;99.90;;;;;;4998355;28;20196;-57
2022/05/20 02:27:38;;;;;;;12.87;3.50;;;9.70;99.90;;;;;;4998252;28;20522;-57
2022/05/20 02:30:06;;;;;;;11.23;3.73;;;9.70;99.90;;;;;;4998315;28;20535;-57
2022/05/20 02:32:37;;;;;;;20.47;4.03;;;9.70;99.90;;;;;;4997851;28;20264;-58
2022/05/20 02:35:03;;;;;;;19.13;4.97;;;9.70;99.90;;;;;;4998148;28;20212;-57
2022/05/20 02:37:32;;;;;;;25.53;3.93;;;9.70;99.90;;;;;;4997861;28;20188;-68
2022/05/20 02:39:59;;;;;;;20.70;5.13;;;9.70;99.90;;;;;;4997803;28;20262;-57
2022/05/20 02:42:28;;;;;;;14.47;3.90;;;9.70;99.90;;;;;;4997841;28;20182;-58
2022/05/20 02:44:55;;;;;;;15.53;3.43;;;9.60;99.90;;;;;;4980116;28;20252;-57
2022/05/20 02:47:21;;;;;;;20.17;4.33;;;9.60;99.90;;;;;;4997787;28;20565;-57
2022/05/20 02:49:47;;;;;;;23.63;5.60;;;9.60;99.90;;;;;;4998124;28;20182;-57
2022/05/20 02:52:14;;;;;;;9.23;3.53;;;9.60;99.90;;;;;;4997984;28;20193;-58
2022/05/20 02:54:39;;;;;;;18.13;5.17;;;9.50;99.90;;;;;;4994717;28;20251;-57
2022/05/20 02:57:05;;;;;;;14.13;3.93;;;9.50;99.90;;;;;;4994809;28;20180;-58
2022/05/20 03:04:59;;;;;;;8.47;3.17;;;9.50;99.90;;;;;;4994766;28;20198;-58
2022/05/20 03:07:25;;;;;;;10.70;3.77;;;9.60;99.90;;;;;;4994548;28;20183;-58
2022/05/20 03:09:53;;;;;;;11.97;3.53;;;9.60;99.90;;;;;;5000777;28;20557;-57
2022/05/20 03:12:19;;;;;;;9.83;3.63;;;9.60;99.90;;;;;;5014525;28;20190;-58
2022/05/20 03:14:45;;;;;;;6.47;2.83;;;9.70;99.90;;;;;;5013770;28;20214;-58
2022/05/20 03:17:11;;;;;;;7.90;2.70;;;9.70;99.90;;;;;;5014102;28;20633;-57
2022/05/20 03:19:38;;;;;;;15.33;2.97;;;9.80;99.90;;;;;;5013974;28;20192;-58
2022/05/20 03:22:05;;;;;;;11.73;2.90;;;9.80;99.90;;;;;;5014046;28;20187;-58
2022/05/20 03:24:32;;;;;;;10.13;2.80;;;9.90;99.90;;;;;;5013576;28;20226;-58
2022/05/20 03:26:58;;;;;;;8.83;3.23;;;9.90;99.90;;;;;;5013855;28;20191;-57
2022/05/20 03:29:24;;;;;;;19.77;3.53;;;9.90;99.90;;;;;;5014289;28;20182;-57
2022/05/20 03:31:50;;;;;;;9.03;3.40;;;9.90;99.90;;;;;;5013448;28;20651;-58
2022/05/20 03:34:17;;;;;;;10.00;3.00;;;10.00;99.90;;;;;;5013258;28;20705;-58
2022/05/20 03:36:46;;;;;;;14.10;3.77;;;10.10;99.90;;;;;;5013137;28;20649;-59
2022/05/20 03:39:15;;;;;;;11.03;3.77;;;10.20;99.90;;;;;;5013485;28;20279;-58
2022/05/20 03:41:42;;;;;;;7.20;3.30;;;10.30;99.90;;;;;;5013389;28;20193;-58
2022/05/20 03:44:10;;;;;;;11.03;3.23;;;10.30;99.90;;;;;;5013585;28;20179;-58
2022/05/20 03:46:45;;;;;;;19.40;4.00;;;10.40;99.90;;;;;;5013219;28;20629;-58
2022/05/20 03:49:12;;;;;;;14.03;3.20;;;10.50;99.90;;;;;;5013460;28;20673;-59
2022/05/20 03:51:37;;;;;;;18.57;5.40;;;10.60;99.90;;;;;;5012770;28;20263;-58
2022/05/20 03:54:04;;;;;;;15.60;3.67;;;10.70;99.90;;;;;;5012726;28;20330;-58
2022/05/20 03:56:30;;;;;;;11.60;3.87;;;10.80;99.90;;;;;;5012930;28;20183;-62
2022/05/20 03:58:56;;;;;;;11.20;3.87;;;11.00;99.90;;;;;;5013183;28;20615;-59
2022/05/20 04:04:06;;;;;;;14.23;4.33;;;11.20;99.90;;;;;;5013343;28;20254;-58
2022/05/20 04:06:32;;;;;;;24.23;5.03;;;11.40;99.80;;;;;;5012312;28;20202;-57
2022/05/20 04:08:58;;;;;;;10.47;3.07;;;11.60;99.60;;;;;;5012982;28;20179;-58
2022/05/20 04:11:25;;;;;;;13.33;3.40;;;11.80;98.60;;;;;;4993552;28;20219;-58
2022/05/20 04:13:51;;;;;;;20.87;4.63;;;12.00;98.10;;;;;;4992656;28;20186;-59
2022/05/20 04:16:17;;;;;;;10.70;3.43;;;12.20;98.10;;;;;;4993007;28;20263;-59
2022/05/20 04:18:43;;;;;;;21.97;4.40;;;12.40;97.50;;;;;;4993194;28;20191;-59
2022/05/20 04:21:11;;;;;;;14.73;4.10;;;12.50;97.70;;;;;;4992826;28;20202;-59
2022/05/20 04:23:37;;;;;;;10.30;3.20;;;12.70;98.00;;;;;;4992580;28;20192;-59
2022/05/20 04:26:04;;;;;;;18.07;4.67;;;12.80;97.60;;;;;;4992720;28;20254;-59
2022/05/20 04:28:29;;;;;;;13.77;3.30;;;12.90;97.90;;;;;;4992481;28;20192;-65
2022/05/20 04:30:58;;;;;;;11.87;3.90;;;13.00;98.10;;;;;;4992597;28;20183;-59
2022/05/20 04:33:25;;;;;;;6.73;3.20;;;13.20;98.40;;;;;;4992259;28;20630;-58
2022/05/20 04:35:51;;;;;;;7.70;3.80;;;13.30;98.60;;;;;;4991834;28;20324;-58
2022/05/20 04:38:17;;;;;;;10.60;3.00;;;13.40;98.50;;;;;;4992132;28;20281;-62
2022/05/20 04:40:43;;;;;;;10.70;3.00;;;13.50;98.30;;;;;;4992210;28;20184;-59
2022/05/20 04:48:38;;;;;;;23.60;5.97;;;13.90;96.90;;;;;;4992597;28;20288;-61
2022/05/20 04:51:04;;;;;;;27.00;5.87;;;14.00;98.90;;;;;;4991673;28;20243;-58
2022/05/20 04:56:13;;;;;;;23.57;6.27;;;13.90;99.30;;;;;;4991758;28;20180;-61
2022/05/20 04:58:39;;;;;;;31.83;7.80;;;13.90;99.80;;;;;;4991665;28;20544;-59
2022/05/20 05:01:05;;;;;;;19.90;6.30;;;13.90;99.90;;;;;;4991847;28;20235;-58
2022/05/20 05:03:31;;;;;;;38.23;8.17;;;13.90;99.80;;;;;;4974103;28;20201;-60
2022/05/20 05:05:57;;;;;;;26.93;5.60;;;13.90;99.70;;;;;;4974146;28;20593;-58
2022/05/20 05:08:22;;;;;;;23.13;6.30;;;14.00;99.60;;;;;;4991725;28;20290;-60
2022/05/20 05:10:49;;;;;;;29.77;5.77;;;14.10;99.40;;;;;;5005739;28;20195;-60
2022/05/20 05:13:15;;;;;;;32.97;8.17;;;14.20;99.30;;;;;;5011468;28;20202;-59
2022/05/20 05:15:44;;;;;;;40.53;9.03;;;14.40;99.30;;;;;;5010711;28;20235;-60
2022/05/20 05:18:14;;;;;;;25.53;6.50;;;14.50;99.10;;;;;;5010153;28;20192;-59
2022/05/20 05:20:50;;;;;;;24.07;5.47;;;14.60;98.80;;;;;;5011067;28;20234;-59
2022/05/20 05:23:17;;;;;;;34.67;5.90;;;14.70;98.40;;;;;;5010429;28;20216;-60
2022/05/20 05:25:43;;;;;;;40.23;9.70;;;14.80;98.30;;;;;;5010795;28;20202;-59
2022/05/20 05:28:10;;;;;;;30.83;5.83;;;14.90;98.30;;;;;;5011002;28;20184;-60
2022/05/20 05:30:36;;;;;;;25.43;6.40;;;15.10;97.90;;;;;;5010364;28;20175;-59
2022/05/20 05:33:02;;;;;;;27.70;6.67;;;15.20;97.70;;;;;;5010787;28;20274;-59
2022/05/20 05:35:30;;;;;;;25.23;7.27;;;15.30;97.50;;;;;;5010470;28;20219;-60
2022/05/20 05:37:56;;;;;;;33.00;7.73;;;15.40;97.40;;;;;;5011206;28;20180;-60
2022/05/20 05:40:24;;;;;;;28.47;6.47;;;15.60;97.40;;;;;;5010885;28;20176;-60
2022/05/20 05:42:50;;;;;;;24.90;5.83;;;15.70;97.30;;;;;;5010983;28;20287;-58
2022/05/20 05:45:20;;;;;;;31.57;7.37;;;15.80;97.00;;;;;;4993154;28;20192;-61
2022/05/20 05:47:53;;;;;;;20.70;4.80;;;15.90;96.90;;;;;;5010595;28;20178;-61
2022/05/20 05:50:20;;;;;;;28.20;7.97;;;16.00;96.40;;;;;;5010454;28;20581;-59
2022/05/20 05:52:46;;;;;;;35.23;7.43;;;16.20;96.60;;;;;;5010708;28;20196;-61
2022/05/20 05:55:12;;;;;;;30.87;6.67;;;16.30;96.30;;;;;;4993032;28;20224;-59
2022/05/20 05:57:38;;;;;;;25.10;5.53;;;16.50;96.00;;;;;;5010323;28;20233;-61
2022/05/20 06:00:05;;;;;;;31.87;5.73;;;16.70;95.60;;;;;;5011123;28;20182;-59
2022/05/20 06:02:31;;;;;;;29.53;6.67;;;16.80;95.30;;;;;;5010707;28;20188;-61
2022/05/20 06:04:56;;;;;;;9.53;3.10;;;17.00;95.20;;;;;;5010678;28;20270;-60
2022/05/20 06:07:22;;;;;;;13.23;2.70;;;17.10;91.30;;;;;;5010596;28;20187;-60
2022/05/20 06:09:48;;;;;;;7.10;1.73;;;17.40;89.10;;;;;;5004073;28;20219;-60
2022/05/20 06:12:14;;;;;;;8.70;2.40;;;17.60;84.10;;;;;;4973222;28;20184;-59
2022/05/20 06:14:40;;;;;;;3.70;1.60;;;17.90;83.00;;;;;;4990447;28;20227;-60
2022/05/20 06:17:11;;;;;;;7.30;2.20;;;18.10;79.80;;;;;;4990521;28;20234;-59
2022/05/20 06:19:37;;;;;;;5.80;2.00;;;18.40;78.80;;;;;;4990745;28;20291;-60
2022/05/20 06:22:03;;;;;;;8.37;2.93;;;18.60;77.40;;;;;;4990981;28;20670;-59
2022/05/20 06:24:29;;;;;;;12.87;2.47;;;18.80;74.90;;;;;;4973380;28;20188;-68
2022/05/20 06:26:55;;;;;;;6.63;1.83;;;19.00;73.00;;;;;;4990816;28;20181;-59
2022/05/20 06:29:21;;;;;;;8.13;2.40;;;19.20;70.20;;;;;;4993612;28;20199;-58
2022/05/20 06:31:46;;;;;;;5.03;2.00;;;19.40;69.20;;;;;;4994228;28;20197;-59
2022/05/20 06:34:12;;;;;;;5.97;1.85;;;19.60;67.50;;;;;;4994557;28;20220;-60
2022/05/20 06:42:07;;;;;;;8.43;2.30;;;20.30;62.30;;;;;;4994548;28;20257;-61
2022/05/20 06:44:33;;;;;;;5.43;2.10;;;20.60;62.10;;;;;;4993623;28;20196;-60
2022/05/20 06:46:59;;;;;;;7.55;2.30;;;20.70;59.90;;;;;;4994714;28;20531;-60
2022/05/20 06:49:24;;;;;;;12.95;2.28;;;21.00;60.00;;;;;;4976631;28;20246;-60
2022/05/20 06:51:54;;;;;;;14.18;2.60;;;21.30;59.60;;;;;;4993723;28;20192;-59
2022/05/20 06:54:20;;;;;;;6.50;2.15;;;21.50;58.50;;;;;;4972590;28;20243;-59
2022/05/20 06:56:46;;;;;;;2.97;1.60;;;21.60;56.40;;;;;;4974015;28;20204;-59
2022/05/20 06:59:13;;;;;;;10.45;2.28;;;21.70;54.40;;;;;;4972966;28;20611;-60
2022/05/20 07:01:39;;;;;;;6.28;1.70;;;21.60;53.90;;;;;;4974485;28;20513;-63
2022/05/20 07:04:06;;;;;;;7.90;2.20;;;21.60;53.40;;;;;;4974434;28;20192;-59
2022/05/20 07:06:32;;;;;;;5.25;1.55;;;21.50;54.10;;;;;;4974309;28;20213;-61
2022/05/20 07:09:04;;;;;;;7.82;2.78;;;21.70;54.30;;;;;;4975297;28;20182;-60
2022/05/20 07:11:30;;;;;;;3.92;1.80;;;21.90;52.90;;;;;;4974108;28;20181;-63
2022/05/20 07:13:56;;;;;;;6.75;1.73;;;22.00;51.70;;;;;;4974371;28;20276;-60
2022/05/20 07:16:27;;;;;;;5.57;1.25;;;22.10;51.90;;;;;;4974246;28;20205;-60
2022/05/20 07:18:53;;;;;;;6.07;1.52;;;22.40;51.50;;;;;;4973042;28;20185;-63
2022/05/20 07:21:19;;;;;;;7.82;2.03;;;22.60;50.80;;;;;;4974546;28;20537;-61
2022/05/20 07:23:45;;;;;;;9.52;2.25;;;22.60;51.10;;;;;;4973144;28;20193;-62
2022/05/20 07:26:13;;;;;;;5.25;2.00;;;22.60;51.40;;;;;;4973996;28;20287;-60
2022/05/20 07:28:39;;;;;;;9.75;2.90;;;22.60;50.90;;;;;;4973619;28;20216;-60
2022/05/20 07:31:06;;;;;;;14.27;3.20;;;22.50;53.10;;;;;;4973670;28;20678;-60
2022/05/20 07:33:32;;;;;;;8.18;2.20;;;22.40;54.30;;;;;;4974257;28;20264;-59
2022/05/20 07:35:59;;;;;;;9.43;2.17;;;22.40;52.40;;;;;;4974274;28;20221;-59
2022/05/20 07:38:25;;;;;;;12.77;3.03;;;22.30;51.50;;;;;;4974102;28;20185;-59
2022/05/20 07:40:51;;;;;;;5.65;2.80;;;22.40;51.80;;;;;;4972892;28;20574;-60
2022/05/20 07:43:20;;;;;;;5.75;1.92;;;22.50;50.40;;;;;;4973984;28;20243;-60
2022/05/20 07:45:47;;;;;;;5.65;2.20;;;22.50;50.10;;;;;;4973522;28;20276;-60
2022/05/20 07:48:12;;;;;;;12.48;3.13;;;22.60;50.40;;;;;;4973614;28;20193;-58
2022/05/20 07:50:45;;;;;;;7.78;2.30;;;22.70;50.30;;;;;;4973639;28;20639;-61
2022/05/20 07:53:29;;;;;;;14.55;2.30;;;22.70;50.10;;;;;;4977419;28;20224;-63
2022/05/20 07:56:05;;;;;;;14.48;2.85;;;22.70;49.10;;;;;;4992934;28;20817;-60
2022/05/20 07:58:36;;;;;;;11.20;2.67;;;22.90;49.40;;;;;;4992618;28;20555;-60
2022/05/20 08:01:03;;;;;;;12.57;2.60;;;23.00;50.80;;;;;;4993090;28;20184;-60
2022/05/20 08:06:17;;;;;;;10.10;3.15;;;23.00;51.90;;;;;;4992954;28;20546;-60
2022/05/20 08:08:44;;;;;;;8.25;2.83;;;23.00;50.80;;;;;;4992523;28;20176;-60
2022/05/20 08:11:09;;;;;;;7.28;2.20;;;23.00;48.30;;;;;;5009897;28;20226;-61
2022/05/20 08:13:35;;;;;;;4.68;1.70;;;23.10;47.40;;;;;;5011923;28;20577;-60
2022/05/20 08:16:01;;;;;;;5.65;1.70;;;23.00;46.40;;;;;;5011833;28;20295;-59
2022/05/20 08:18:27;;;;;;;5.82;1.90;;;23.10;45.90;;;;;;5012302;28;20253;-61
2022/05/20 08:20:55;;;;;;;9.18;1.85;;;23.10;46.20;;;;;;5011696;28;20321;-61
2022/05/20 08:23:21;;;;;;;11.13;1.80;;;23.20;45.70;;;;;;5011947;28;20649;-61
2022/05/20 08:25:46;;;;;;;9.00;2.10;;;23.20;45.80;;;;;;5011282;28;20191;-60
2022/05/20 08:28:12;;;;;;;9.82;2.13;;;23.40;45.50;;;;;;5011840;28;20184;-60
2022/05/20 08:30:38;;;;;;;9.18;2.40;;;23.50;46.10;;;;;;5011627;28;20180;-59
2022/05/20 08:33:04;;;;;;;8.90;2.30;;;23.70;46.70;;;;;;5011553;28;20187;-59
2022/05/20 08:35:30;;;;;;;13.55;2.70;;;23.70;46.00;;;;;;5011738;28;20572;-61
2022/05/20 08:37:56;;;;;;;4.90;1.63;;;23.80;46.00;;;;;;4994039;28;20184;-60
2022/05/20 08:40:31;;;;;;;6.97;2.42;;;23.80;45.80;;;;;;5011644;28;20188;-59
2022/05/20 08:43:00;;;;;;;9.15;3.58;;;23.80;46.30;;;;;;5011314;28;20265;-60
2022/05/20 08:45:28;;;;;;;14.15;2.33;;;23.80;45.90;;;;;;5011526;28;20782;-59
2022/05/20 08:47:55;;;;;;;11.88;2.80;;;23.70;45.40;;;;;;5011331;28;20677;-60
2022/05/20 08:50:25;;;;;;;21.02;3.70;;;23.70;45.60;;;;;;5011484;28;20532;-60
2022/05/20 08:52:54;;;;;;;10.23;2.92;;;23.90;45.70;;;;;;5010868;28;20545;-60
2022/05/20 08:55:20;;;;;;;6.60;2.42;;;24.00;45.60;;;;;;5011166;28;20547;-59
2022/05/20 08:57:57;;;;;;;9.18;2.35;;;24.10;45.70;;;;;;5010289;28;20316;-59
2022/05/20 09:00:23;;;;;;;7.07;1.98;;;24.10;45.70;;;;;;5011164;28;20207;-60
2022/05/20 09:02:49;;;;;;;8.35;4.30;;;24.10;45.10;;;;;;5010292;28;20251;-59
2022/05/20 09:05:31;;;;;;;6.82;2.20;;;24.00;45.20;;;;;;5010943;28;20728;-59
2022/05/20 09:08:07;;;;;;;11.88;2.58;;;24.10;45.60;;;;;;5011231;28;20293;-60
2022/05/20 09:10:45;;;;;;;3.78;1.70;;;24.20;46.70;;;;;;4998719;28;20271;-61
2022/05/20 09:15:43;;;;;;;5.90;1.50;;;24.30;44.90;;;;;;4991732;28;20188;-60
2022/05/20 09:16:16;;;;;;;6.18;1.85;;;24.10;45.10;;;;;;4990546;28;20224;-64
2022/05/20 09:18:44;;;;;;;12.50;2.10;;;24.10;45.20;;;;;;4973440;28;20286;-59
2022/05/20 09:21:33;;;;;;;3.50;1.73;;;24.20;45.30;;;;;;4991518;28;20271;-61
2022/05/20 09:24:04;;;;;;;5.50;1.80;;;24.30;43.70;;;;;;4991309;28;20225;-61
2022/05/20 09:26:40;;;;;;;4.15;2.20;;;24.50;43.70;;;;;;4990834;28;20657;-59
2022/05/20 09:29:10;;;;;;;13.20;2.22;;;24.70;43.70;;;;;;4991646;28;20585;-62
2022/05/20 09:31:51;;;;;;;8.85;2.05;;;25.00;43.90;;;;;;4991229;28;20173;-60
2022/05/20 09:34:26;;;;;;;10.52;3.22;;;25.20;42.90;;;;;;4990962;28;20224;-61
2022/05/20 09:37:00;;;;;;;10.65;2.17;;;25.40;44.40;;;;;;4991061;28;20529;-59
2022/05/20 09:39:39;;;;;;;16.00;2.70;;;25.60;43.20;;;;;;4991137;28;20187;-60
2022/05/20 09:42:20;;;;;;;9.82;2.15;;;25.70;42.50;;;;;;4991926;28;20176;-61
2022/05/20 09:44:52;;;;;;;4.10;2.10;;;25.80;41.80;;;;;;4991632;28;20526;-63
2022/05/20 09:47:36;;;;;;;7.00;2.40;;;25.80;42.70;;;;;;4991936;28;20176;-61
2022/05/20 09:50:33;;;;;;;15.20;2.72;;;25.60;42.00;;;;;;4991897;28;20252;-60
2022/05/20 09:53:39;;;;;;;14.23;2.50;;;25.90;42.20;;;;;;4991264;28;20244;-62
2022/05/20 09:56:29;;;;;;;11.40;2.38;;;26.00;42.00;;;;;;4973660;28;20224;-61
2022/05/20 09:59:50;;;;;;;7.53;2.42;;;26.10;42.20;;;;;;4991758;28;20279;-59
2022/05/20 10:02:38;;;;;;;7.22;2.60;;;26.10;41.10;;;;;;4958244;28;20219;-59
2022/05/20 10:05:11;;;;;;;6.50;2.40;;;26.20;41.20;;;;;;4994954;28;20638;-59
2022/05/20 10:07:50;;;;;;;9.30;2.65;;;26.60;40.60;;;;;;4995162;28;20183;-59
2022/05/20 10:10:45;;;;;;;10.77;2.00;;;26.60;40.90;;;;;;5004722;28;20179;-58
2022/05/20 10:13:24;;;;;;;3.17;2.10;;;26.60;39.90;;;;;;5014607;28;20167;-59
2022/05/20 10:15:54;;;;;;;9.07;4.10;;;26.60;40.20;;;;;;5014125;28;20720;-60
2022/05/20 10:18:42;;;;;;;5.85;2.30;;;26.50;40.40;;;;;;5014162;28;20194;-61
2022/05/20 10:21:38;;;;;;;15.75;2.05;;;26.50;40.40;;;;;;5014306;28;20176;-59
2022/05/20 10:24:42;;;;;;;3.65;1.35;;;26.60;40.60;;;;;;5014504;28;20294;-61
2022/05/20 10:27:40;;;;;;;5.90;1.58;;;26.60;40.10;;;;;;5013720;28;20183;-60
2022/05/20 10:33:30;;;;;;;5.88;2.10;;;26.60;40.40;;;;;;5014661;28;20226;-60
2022/05/20 10:35:59;;;;;;;3.55;1.60;;;26.70;41.20;;;;;;4995984;28;20661;-60
2022/05/20 10:38:43;;;;;;;4.15;1.98;;;27.10;39.70;;;;;;5013921;28;20210;-59
2022/05/20 10:41:21;;;;;;;6.03;1.77;;;27.30;39.40;;;;;;5013852;28;20596;-61
2022/05/20 10:50:23;;;;;;;8.68;2.05;;;27.30;38.50;;;;;;5013399;28;20710;-60
2022/05/20 10:52:48;;;;;;;8.32;2.42;;;27.80;39.50;;;;;;5013449;28;20215;-61
2022/05/20 10:55:25;;;;;;;13.68;2.10;;;28.50;37.50;;;;;;5013794;28;20246;-59
2022/05/20 10:58:21;;;;;;;3.75;1.20;;;28.90;37.80;;;;;;5013442;28;20298;-59
2022/05/20 11:00:52;;;;;;;7.95;1.70;;;28.90;36.70;;;;;;5013153;28;20210;-60
2022/05/20 11:03:52;;;;;;;7.60;2.67;;;28.80;37.10;;;;;;5013312;28;20241;-61
2022/05/20 11:06:30;;;;;;;8.80;2.83;;;29.30;38.20;;;;;;5013486;28;20562;-61
2022/05/20 11:09:01;;;;;;;5.13;1.40;;;29.40;36.90;;;;;;5013572;28;20180;-60
2022/05/20 11:11:34;;;;;;;2.22;1.48;;;29.70;36.00;;;;;;4993621;28;20561;-59
2022/05/20 11:14:44;;;;;;;6.63;2.13;;;29.40;35.40;;;;;;4992717;28;20191;-60
2022/05/20 11:17:22;;;;;;;6.72;1.70;;;29.60;35.50;;;;;;4969019;28;20229;-61
2022/05/20 11:20:08;;;;;;;6.75;1.70;;;29.70;36.30;;;;;;4992752;28;20183;-59
2022/05/20 11:22:43;;;;;;;7.90;1.98;;;30.00;35.50;;;;;;4993660;28;20192;-58
2022/05/20 11:25:34;;;;;;;9.40;2.55;;;31.50;34.50;;;;;;4993408;28;20263;-59
2022/05/20 11:28:15;;;;;;;9.82;5.45;;;33.70;33.90;;;;;;4980081;28;20283;-59
2022/05/20 11:30:56;;;;;;;8.32;1.98;;;35.70;30.70;;;;;;4993508;28;20179;-59
2022/05/20 11:33:47;;;;;;;3.05;1.58;;;37.10;29.30;;;;;;4993331;28;20180;-59
2022/05/20 11:36:55;;;;;;;3.95;1.60;;;36.70;28.70;;;;;;4993323;28;20740;-60
2022/05/20 11:39:39;;;;;;;3.85;1.50;;;36.60;28.30;;;;;;4895004;29;20183;-63
2022/05/20 11:42:11;;;;;;;7.85;2.40;;;36.00;28.70;;;;;;4990126;28;20685;-61
2022/05/20 11:44:47;;;;;;;9.40;2.42;;;34.50;29.00;;;;;;4993540;28;20206;-59
2022/05/20 11:47:35;;;;;;;5.07;1.95;;;34.90;30.30;;;;;;4993007;28;20247;-61
2022/05/20 11:50:11;;;;;;;8.52;1.90;;;36.20;28.70;;;;;;4992757;28;20267;-61
2022/05/20 11:52:45;;;;;;;5.97;1.73;;;37.00;28.00;;;;;;4993022;28;20192;-63
2022/05/20 11:55:36;;;;;;;8.93;2.47;;;37.90;28.40;;;;;;4992598;28;20580;-60
2022/05/20 11:58:08;;;;;;;6.22;1.40;;;37.20;27.60;;;;;;4992814;28;20260;-59
2022/05/20 12:00:40;;;;;;;2.33;1.35;;;37.50;26.50;;;;;;4993059;28;20176;-60
2022/05/20 12:03:17;;;;;;;10.05;1.83;;;38.20;27.70;;;;;;4975379;28;20188;-60
2022/05/20 12:05:47;;;;;;;6.32;1.85;;;37.80;27.00;;;;;;4992243;28;20180;-60
2022/05/20 12:08:37;;;;;;;11.63;2.38;;;38.60;27.30;;;;;;4993163;28;20168;-59
2022/05/20 12:11:21;;;;;;;10.23;1.60;;;38.70;26.70;;;;;;5009034;28;20242;-58
2022/05/20 12:14:17;;;;;;;10.50;2.00;;;39.10;25.90;;;;;;4994521;28;20178;-58
2022/05/20 12:16:54;;;;;;;3.65;2.00;;;39.40;25.90;;;;;;4984542;28;20210;-59
2022/05/20 12:25:36;;;;;;;5.70;1.77;;;40.50;24.90;;;;;;5011836;28;20190;-58
2022/05/20 12:28:22;;;;;;;5.28;1.95;;;40.30;24.00;;;;;;5011641;28;20621;-60
2022/05/20 12:31:08;;;;;;;5.88;1.90;;;41.00;24.70;;;;;;4997563;28;20277;-59
2022/05/20 12:34:00;;;;;;;15.07;2.30;;;42.20;24.10;;;;;;5011792;28;20661;-59
2022/05/20 12:36:29;;;;;;;7.05;2.92;;;42.80;23.20;;;;;;5011599;28;20183;-59
2022/05/20 12:39:06;;;;;;;4.30;1.35;;;42.60;23.20;;;;;;5012026;28;20182;-60
2022/05/20 12:41:50;;;;;;;12.52;2.55;;;42.00;23.40;;;;;;4994075;28;20237;-59
2022/05/20 12:44:15;;;;;;;5.57;1.52;;;42.00;23.60;;;;;;5012081;28;20202;-59
2022/05/20 12:47:05;;;;;;;9.15;2.47;;;41.90;23.50;;;;;;5011550;28;20183;-60
2022/05/20 12:49:46;;;;;;;7.60;2.05;;;43.10;23.20;;;;;;5012077;28;20175;-60
2022/05/20 12:52:18;;;;;;;27.33;5.15;;;42.80;23.00;;;;;;5011502;28;20310;-60
2022/05/20 12:55:08;;;;;;;12.38;2.70;;;42.10;23.50;;;;;;5010450;28;20230;-59
2022/05/20 12:57:34;;;;;;;5.57;2.40;;;41.40;24.10;;;;;;4974073;28;20198;-58
2022/05/20 13:00:12;;;;;;;7.45;1.55;;;42.40;23.40;;;;;;5011044;28;20317;-62
2022/05/20 13:02:42;;;;;;;12.48;3.25;;;42.90;23.40;;;;;;5010898;28;20273;-58
2022/05/20 13:05:30;;;;;;;8.52;2.45;;;42.70;23.50;;;;;;5011266;28;20575;-59
2022/05/20 13:07:57;;;;;;;10.70;2.55;;;43.00;23.00;;;;;;5011195;28;20631;-61
2022/05/20 13:10:33;;;;;;;7.82;1.77;;;43.30;23.00;;;;;;5000298;28;20176;-60
2022/05/20 13:13:08;;;;;;;7.57;2.22;;;44.40;22.70;;;;;;4991696;28;20175;-59
2022/05/20 13:15:46;;;;;;;7.32;1.83;;;45.40;22.70;;;;;;4991469;28;20206;-59
2022/05/20 13:18:20;;;;;;;5.82;1.80;;;44.40;22.00;;;;;;4991483;28;20176;-59
2022/05/20 13:20:49;;;;;;;8.45;2.42;;;42.90;23.10;;;;;;4991381;28;20190;-59
2022/05/20 13:23:30;;;;;;;4.57;1.95;;;41.70;23.40;;;;;;4973528;28;20187;-59
2022/05/20 13:25:56;;;;;;;8.00;1.77;;;41.30;23.70;;;;;;4990486;28;20192;-62
2022/05/20 13:28:30;;;;;;;5.88;1.92;;;41.50;23.50;;;;;;4973635;28;20187;-60
2022/05/20 13:31:01;;;;;;;7.05;2.13;;;42.40;23.70;;;;;;4991222;28;20550;-60
2022/05/20 13:33:26;;;;;;;7.40;2.13;;;43.50;22.80;;;;;;4991407;28;20253;-60
2022/05/20 13:35:53;;;;;;;10.73;2.33;;;44.10;22.40;;;;;;4990915;28;20298;-60
2022/05/20 13:38:27;;;;;;;6.38;2.40;;;43.40;22.40;;;;;;4990242;28;20195;-59
2022/05/20 13:40:53;;;;;;;11.75;3.50;;;44.70;22.60;;;;;;4990790;28;20258;-59
2022/05/20 13:43:25;;;;;;;9.25;2.45;;;45.30;22.00;;;;;;4990936;28;20712;-59
2022/05/20 13:51:31;;;;;;;7.30;1.58;;;45.40;21.00;;;;;;4991484;28;20206;-59
2022/05/20 13:54:03;;;;;;;4.95;1.63;;;43.80;22.00;;;;;;4991105;28;20604;-59
2022/05/20 13:56:34;;;;;;;3.67;1.75;;;43.30;22.10;;;;;;4991417;28;20183;-59